Time;durP1;ratioP1;P1;durP2;ratioP2;P2;SDS_P1;SDS_P2;PMS_P1;PMS_P2;Temp;Humidity;BMP_temperature;BMP_pressure;BME280_temperature;BME280_humidity;BME280_pressure;Samples;Min_cycle;Max_cycle;Signal;HPM_P1;HPM_P2
2021/10/29 00:00:36;;;;;;;18.52;12.65;;;10.00;99.90;;;;;;5048296;28;20036;-43
2021/10/29 00:03:03;;;;;;;15.13;11.25;;;10.00;99.90;;;;;;5059969;28;20035;-43
2021/10/29 00:05:30;;;;;;;14.85;11.15;;;10.00;99.90;;;;;;5027794;28;20044;-42
2021/10/29 00:07:56;;;;;;;16.73;11.85;;;10.00;99.90;;;;;;5050931;28;20030;-43
2021/10/29 00:10:21;;;;;;;17.73;12.30;;;10.00;99.90;;;;;;5050872;28;20036;-42
2021/10/29 00:12:47;;;;;;;16.48;12.00;;;10.00;99.90;;;;;;5054669;28;20059;-44
2021/10/29 00:15:13;;;;;;;14.70;10.75;;;10.00;99.90;;;;;;5052532;28;20033;-43
2021/10/29 00:17:39;;;;;;;13.43;10.50;;;10.00;99.90;;;;;;5052002;28;20367;-43
2021/10/29 00:20:08;;;;;;;13.93;10.80;;;10.00;99.90;;;;;;5055005;28;20036;-43
2021/10/29 00:22:33;;;;;;;13.60;10.68;;;10.00;99.90;;;;;;5049227;28;20025;-43
2021/10/29 00:24:59;;;;;;;12.45;9.52;;;10.00;99.90;;;;;;5057606;28;20094;-43
2021/10/29 00:27:25;;;;;;;13.80;10.10;;;10.00;99.90;;;;;;5048716;28;20024;-44
2021/10/29 00:29:50;;;;;;;10.52;8.82;;;10.10;99.90;;;;;;5057898;28;20021;-44
2021/10/29 00:32:16;;;;;;;16.02;10.73;;;10.00;99.90;;;;;;5048369;28;20150;-43
2021/10/29 00:34:41;;;;;;;14.07;9.52;;;10.10;99.90;;;;;;5058432;28;20021;-43
2021/10/29 00:37:07;;;;;;;13.55;9.85;;;10.10;99.90;;;;;;5047087;28;20051;-43
2021/10/29 00:39:32;;;;;;;12.63;9.43;;;10.10;99.90;;;;;;5059865;28;20063;-43
2021/10/29 00:41:58;;;;;;;13.30;9.77;;;10.10;99.90;;;;;;5047232;28;20489;-43
2021/10/29 00:44:26;;;;;;;12.68;9.30;;;10.10;99.90;;;;;;5058381;28;20103;-44
2021/10/29 00:46:52;;;;;;;11.50;9.38;;;10.10;99.90;;;;;;5046863;28;20043;-43
2021/10/29 00:49:18;;;;;;;12.95;10.13;;;10.10;99.90;;;;;;5057364;28;20035;-44
2021/10/29 00:51:44;;;;;;;12.18;9.63;;;10.10;99.90;;;;;;5048924;28;20071;-43
2021/10/29 00:54:11;;;;;;;13.98;9.80;;;10.10;99.90;;;;;;5054781;28;20031;-42
2021/10/29 00:56:37;;;;;;;12.98;9.90;;;10.10;99.90;;;;;;5051399;28;20503;-44
2021/10/29 00:59:03;;;;;;;12.77;9.95;;;10.10;99.90;;;;;;5050931;28;20020;-42
2021/10/29 01:01:28;;;;;;;14.18;10.15;;;10.10;99.90;;;;;;5054439;28;20036;-42
2021/10/29 01:03:57;;;;;;;13.80;10.70;;;10.10;99.90;;;;;;5048100;28;20376;-43
2021/10/29 01:06:23;;;;;;;12.73;10.00;;;10.10;99.90;;;;;;5055884;28;20036;-43
2021/10/29 01:08:49;;;;;;;13.40;9.75;;;10.10;99.90;;;;;;5047742;28;20094;-43
2021/10/29 01:11:17;;;;;;;13.15;10.02;;;10.10;99.90;;;;;;5057546;28;20497;-43
2021/10/29 01:13:47;;;;;;;12.07;8.90;;;10.10;99.90;;;;;;5047480;28;20025;-43
2021/10/29 01:16:13;;;;;;;13.20;9.98;;;10.10;99.90;;;;;;5057990;28;20024;-43
2021/10/29 01:18:39;;;;;;;14.23;9.70;;;10.10;99.90;;;;;;5045663;28;20024;-43
2021/10/29 01:21:04;;;;;;;14.25;10.63;;;10.10;99.90;;;;;;5058697;28;20104;-43
2021/10/29 01:23:33;;;;;;;14.50;10.15;;;10.10;99.90;;;;;;5046678;28;20140;-44
2021/10/29 01:26:04;;;;;;;12.18;10.25;;;10.10;99.90;;;;;;5058122;28;20060;-43
2021/10/29 01:28:29;;;;;;;15.25;10.65;;;10.00;99.90;;;;;;5046279;28;20049;-44
2021/10/29 01:30:58;;;;;;;12.95;10.68;;;10.10;99.90;;;;;;5058074;28;20110;-44
2021/10/29 01:33:24;;;;;;;11.82;9.27;;;10.10;99.90;;;;;;5045937;28;20081;-44
2021/10/29 01:35:49;;;;;;;14.48;10.45;;;10.00;99.90;;;;;;5056090;28;20024;-43
2021/10/29 01:38:15;;;;;;;13.85;9.95;;;10.00;99.90;;;;;;5049604;28;20063;-43
2021/10/29 01:40:41;;;;;;;11.48;9.82;;;10.00;99.90;;;;;;5052135;28;20438;-43
2021/10/29 01:43:07;;;;;;;13.88;10.27;;;10.00;99.90;;;;;;5051812;28;20477;-43
2021/10/29 01:45:33;;;;;;;15.05;11.07;;;10.00;99.90;;;;;;5050468;28;20384;-44
2021/10/29 01:47:59;;;;;;;17.10;11.65;;;10.00;99.90;;;;;;5053441;28;20035;-43
2021/10/29 01:50:25;;;;;;;15.02;11.10;;;10.00;99.90;;;;;;5048132;28;20032;-45
2021/10/29 01:52:51;;;;;;;13.00;9.82;;;10.00;99.90;;;;;;5064422;28;20502;-44
2021/10/29 01:55:16;;;;;;;14.02;10.00;;;10.00;99.90;;;;;;5064091;28;20051;-43
2021/10/29 01:57:42;;;;;;;14.82;8.82;;;10.00;99.90;;;;;;5054336;28;20022;-43
2021/10/29 02:00:08;;;;;;;15.00;9.75;;;9.90;99.90;;;;;;5065760;28;20460;-42
2021/10/29 02:02:34;;;;;;;12.20;8.65;;;9.90;99.90;;;;;;5054124;28;20025;-43
2021/10/29 02:05:00;;;;;;;12.30;9.30;;;9.90;99.90;;;;;;5065800;28;20035;-43
2021/10/29 02:07:25;;;;;;;13.20;9.32;;;9.90;99.90;;;;;;5052958;28;20044;-44
2021/10/29 02:09:51;;;;;;;12.13;9.50;;;9.90;99.90;;;;;;5065783;28;20021;-44
2021/10/29 02:12:16;;;;;;;13.70;9.07;;;9.90;99.90;;;;;;5054644;28;20061;-43
2021/10/29 02:14:42;;;;;;;14.50;9.63;;;9.90;99.90;;;;;;5063900;28;20025;-43
2021/10/29 02:17:07;;;;;;;9.75;7.93;;;9.90;99.90;;;;;;5056974;28;20025;-43
2021/10/29 02:19:33;;;;;;;11.57;8.55;;;9.90;99.90;;;;;;5066030;28;20035;-43
2021/10/29 02:21:59;;;;;;;12.60;8.77;;;9.90;99.90;;;;;;5062575;28;20487;-44
2021/10/29 02:24:24;;;;;;;12.90;8.85;;;9.90;99.90;;;;;;5064212;28;20488;-43
2021/10/29 02:26:50;;;;;;;11.45;9.00;;;9.90;99.90;;;;;;5066184;28;20314;-44
2021/10/29 02:29:15;;;;;;;11.52;8.35;;;9.90;99.90;;;;;;5060529;28;20106;-44
2021/10/29 02:31:41;;;;;;;10.30;7.88;;;9.90;99.90;;;;;;5067956;28;20127;-44
2021/10/29 02:34:06;;;;;;;11.15;8.10;;;9.90;99.90;;;;;;5058863;28;20036;-43
2021/10/29 02:36:32;;;;;;;13.90;8.93;;;9.90;99.90;;;;;;5067844;28;20016;-43
2021/10/29 02:38:58;;;;;;;11.68;8.55;;;9.90;99.90;;;;;;5058171;28;20937;-44
2021/10/29 02:41:24;;;;;;;10.13;7.82;;;9.90;99.90;;;;;;5069589;28;20103;-43
2021/10/29 02:43:50;;;;;;;10.77;8.48;;;9.90;99.90;;;;;;5060542;28;20112;-43
2021/10/29 02:46:16;;;;;;;12.00;7.97;;;9.80;99.90;;;;;;5049854;28;20423;-44
2021/10/29 02:48:41;;;;;;;12.50;8.30;;;9.80;99.90;;;;;;5061797;28;20027;-44
2021/10/29 02:51:07;;;;;;;9.85;7.68;;;9.80;99.90;;;;;;5049184;28;20481;-43
2021/10/29 02:53:35;;;;;;;8.98;7.38;;;9.80;99.90;;;;;;5061576;28;20031;-43
2021/10/29 02:56:01;;;;;;;11.70;7.93;;;9.80;99.90;;;;;;5029400;28;20276;-44
2021/10/29 02:58:28;;;;;;;9.40;7.57;;;9.80;99.90;;;;;;5049694;28;20032;-43
2021/10/29 03:00:54;;;;;;;10.60;7.40;;;9.80;99.90;;;;;;5052467;28;20435;-43
2021/10/29 03:03:20;;;;;;;12.25;7.30;;;9.90;99.90;;;;;;5055325;28;20012;-43
2021/10/29 03:05:45;;;;;;;10.00;7.50;;;9.90;99.90;;;;;;5054670;28;20100;-44
2021/10/29 03:08:11;;;;;;;10.70;7.72;;;9.90;99.90;;;;;;5051862;28;20418;-43
2021/10/29 03:10:37;;;;;;;9.05;7.35;;;9.90;99.90;;;;;;5057519;28;20046;-43
2021/10/29 03:13:02;;;;;;;9.02;7.03;;;9.90;99.90;;;;;;5049978;28;20013;-43
2021/10/29 03:15:31;;;;;;;11.55;8.48;;;9.90;99.90;;;;;;5060171;28;20035;-44
2021/10/29 03:17:57;;;;;;;11.43;8.63;;;9.90;99.90;;;;;;5049571;28;20156;-44
2021/10/29 03:20:22;;;;;;;9.98;7.78;;;9.90;99.90;;;;;;5060209;28;20124;-44
2021/10/29 03:22:48;;;;;;;10.65;7.70;;;9.90;99.90;;;;;;5048796;28;20476;-44
2021/10/29 03:25:13;;;;;;;11.52;8.20;;;9.90;99.90;;;;;;5060456;28;20045;-43
2021/10/29 03:27:39;;;;;;;10.00;8.00;;;9.90;99.90;;;;;;5048780;28;20033;-42
2021/10/29 03:30:05;;;;;;;8.68;6.90;;;9.90;99.90;;;;;;5060685;28;20028;-43
2021/10/29 03:32:31;;;;;;;9.80;7.25;;;9.90;99.90;;;;;;5048306;28;20036;-44
2021/10/29 03:34:58;;;;;;;11.32;8.60;;;9.90;99.90;;;;;;5059042;28;20028;-44
2021/10/29 03:43:04;;;;;;;10.40;8.13;;;9.90;99.90;;;;;;5028514;28;20072;-43
2021/10/29 03:45:31;;;;;;;12.93;8.43;;;9.80;99.90;;;;;;5057608;28;20044;-43
2021/10/29 03:47:59;;;;;;;8.18;7.10;;;9.80;99.90;;;;;;5047478;28;20126;-44
2021/10/29 03:50:30;;;;;;;10.68;7.13;;;9.80;99.90;;;;;;5058684;28;20032;-44
2021/10/29 03:53:12;;;;;;;9.65;7.47;;;9.80;99.90;;;;;;5056811;28;20032;-43
2021/10/29 03:55:40;;;;;;;10.75;7.45;;;9.80;99.90;;;;;;5056669;28;20079;-42
2021/10/29 03:58:06;;;;;;;12.65;7.45;;;9.80;99.90;;;;;;5067164;28;20054;-42
2021/10/29 04:00:33;;;;;;;10.70;7.50;;;9.80;99.90;;;;;;5058546;28;20031;-43
2021/10/29 04:03:03;;;;;;;10.85;7.80;;;9.80;99.90;;;;;;5063921;28;20021;-44
2021/10/29 04:05:31;;;;;;;11.60;8.23;;;9.80;99.90;;;;;;5060870;28;20037;-43
2021/10/29 04:07:57;;;;;;;14.02;8.98;;;9.70;99.90;;;;;;5061895;28;20472;-44
2021/10/29 04:10:26;;;;;;;8.93;7.47;;;9.80;99.90;;;;;;5063084;28;20029;-43
2021/10/29 04:12:54;;;;;;;9.32;7.65;;;9.80;99.90;;;;;;5060475;28;20657;-44
2021/10/29 04:15:19;;;;;;;10.15;7.43;;;9.70;99.90;;;;;;5064576;28;20035;-43
2021/10/29 04:17:45;;;;;;;10.40;7.68;;;9.70;99.90;;;;;;5057310;28;20016;-43
2021/10/29 04:20:16;;;;;;;10.05;7.50;;;9.70;99.90;;;;;;5066274;28;20025;-42
2021/10/29 04:22:43;;;;;;;9.70;7.15;;;9.70;99.90;;;;;;5055535;28;20035;-43
2021/10/29 04:25:09;;;;;;;10.90;7.68;;;9.70;99.90;;;;;;5066069;28;20484;-43
2021/10/29 04:27:38;;;;;;;12.35;7.72;;;9.70;99.90;;;;;;5056166;28;20024;-43
2021/10/29 04:30:11;;;;;;;10.85;7.72;;;9.70;99.90;;;;;;5066816;28;20497;-42
2021/10/29 04:32:37;;;;;;;10.57;8.20;;;9.70;99.90;;;;;;5056113;28;20024;-44
2021/10/29 04:35:03;;;;;;;10.82;7.82;;;9.70;99.90;;;;;;5066495;28;20039;-42
2021/10/29 04:37:29;;;;;;;9.13;7.38;;;9.70;99.90;;;;;;5054359;28;20111;-43
2021/10/29 04:39:55;;;;;;;12.07;7.80;;;9.70;99.90;;;;;;5067327;28;20719;-43
2021/10/29 04:42:21;;;;;;;9.50;7.18;;;9.70;99.90;;;;;;5054255;28;20589;-44
2021/10/29 04:44:47;;;;;;;9.05;7.00;;;9.70;99.90;;;;;;5066562;28;20111;-44
2021/10/29 04:47:13;;;;;;;11.63;7.88;;;9.70;99.90;;;;;;5057652;28;20017;-43
2021/10/29 04:49:38;;;;;;;10.35;7.20;;;9.70;99.90;;;;;;5063410;28;20448;-43
2021/10/29 04:52:04;;;;;;;10.13;7.20;;;9.70;99.90;;;;;;5059920;28;20036;-42
2021/10/29 04:54:31;;;;;;;11.32;7.13;;;9.70;99.90;;;;;;5066678;28;20056;-43
2021/10/29 04:56:58;;;;;;;8.68;7.15;;;9.70;99.90;;;;;;5061499;28;20028;-43
2021/10/29 04:59:23;;;;;;;9.43;7.20;;;9.70;99.90;;;;;;5059188;28;20098;-44
2021/10/29 05:01:49;;;;;;;9.50;7.40;;;9.70;99.90;;;;;;5064475;28;20024;-43
2021/10/29 05:04:15;;;;;;;10.63;7.05;;;9.70;99.90;;;;;;5056377;28;20040;-43
2021/10/29 05:06:42;;;;;;;8.43;7.13;;;9.70;99.90;;;;;;5064908;28;20032;-43
2021/10/29 05:09:07;;;;;;;9.35;7.05;;;9.70;99.90;;;;;;5055634;28;20033;-43
2021/10/29 05:11:33;;;;;;;10.20;6.90;;;9.70;99.90;;;;;;5065410;28;20035;-44
2021/10/29 05:13:58;;;;;;;9.63;7.40;;;9.70;99.90;;;;;;5054564;28;20502;-43
2021/10/29 05:16:30;;;;;;;10.93;6.97;;;9.70;99.90;;;;;;5066781;28;20031;-44
2021/10/29 05:18:56;;;;;;;10.63;7.47;;;9.70;99.90;;;;;;5053395;28;20093;-44
2021/10/29 05:21:21;;;;;;;10.50;7.18;;;9.70;99.90;;;;;;5066557;28;20037;-43
2021/10/29 05:23:47;;;;;;;8.13;6.82;;;9.70;99.90;;;;;;5053480;28;20044;-44
2021/10/29 05:26:13;;;;;;;9.05;7.38;;;9.70;99.90;;;;;;5066071;28;20074;-43
2021/10/29 05:28:38;;;;;;;8.02;6.50;;;9.70;99.90;;;;;;5056082;28;20107;-44
2021/10/29 05:31:04;;;;;;;9.38;7.00;;;9.70;99.90;;;;;;5064029;28;20115;-43
2021/10/29 05:33:30;;;;;;;10.05;7.20;;;9.80;99.90;;;;;;5060648;28;20066;-44
2021/10/29 05:35:55;;;;;;;8.95;6.78;;;9.80;99.90;;;;;;5051787;28;20020;-44
2021/10/29 05:38:22;;;;;;;7.97;6.75;;;9.80;99.90;;;;;;5050139;28;20031;-43
2021/10/29 05:40:48;;;;;;;11.63;8.90;;;9.80;99.90;;;;;;5050232;28;20029;-42
2021/10/29 05:43:13;;;;;;;10.55;8.25;;;9.80;99.90;;;;;;5047604;28;20029;-44
2021/10/29 05:45:39;;;;;;;12.15;9.10;;;9.80;99.90;;;;;;5054102;28;20044;-44
2021/10/29 05:48:07;;;;;;;8.95;7.60;;;9.70;99.90;;;;;;5046524;28;20491;-44
2021/10/29 05:50:35;;;;;;;10.23;7.47;;;9.70;99.90;;;;;;5052655;28;20028;-44
2021/10/29 05:53:18;;;;;;;11.40;8.60;;;9.70;99.90;;;;;;5061852;28;20029;-43
2021/10/29 05:55:43;;;;;;;9.98;7.57;;;9.80;99.90;;;;;;5053589;28;20094;-44
2021/10/29 05:58:09;;;;;;;11.02;7.68;;;9.70;99.90;;;;;;5064169;28;20028;-43
2021/10/29 06:00:35;;;;;;;10.57;8.45;;;9.70;99.90;;;;;;5052737;28;20028;-42
2021/10/29 06:03:05;;;;;;;10.27;8.15;;;9.70;99.90;;;;;;5065530;28;20107;-43
2021/10/29 06:05:40;;;;;;;11.60;8.32;;;9.70;99.90;;;;;;5051890;28;20028;-43
2021/10/29 06:08:06;;;;;;;10.55;7.70;;;9.70;99.90;;;;;;5065582;28;20032;-44
2021/10/29 06:10:31;;;;;;;10.35;7.85;;;9.70;99.90;;;;;;5053057;28;20057;-43
2021/10/29 06:12:57;;;;;;;10.35;8.30;;;9.60;99.90;;;;;;5046329;28;20029;-44
2021/10/29 06:15:23;;;;;;;10.85;8.18;;;9.60;99.90;;;;;;5048902;28;20037;-44
2021/10/29 06:17:49;;;;;;;11.73;7.78;;;9.60;99.90;;;;;;5064679;28;20013;-43
2021/10/29 06:20:15;;;;;;;10.65;8.20;;;9.60;99.90;;;;;;5056680;28;20036;-42
2021/10/29 06:22:47;;;;;;;10.30;7.93;;;9.60;99.90;;;;;;5061766;28;20532;-44
2021/10/29 06:25:16;;;;;;;13.07;8.95;;;9.60;99.90;;;;;;5058426;28;20127;-43
2021/10/29 06:30:47;;;;;;;10.15;7.75;;;9.60;99.90;;;;;;5012812;28;20042;-44
2021/10/29 06:33:20;;;;;;;9.90;7.75;;;9.60;99.90;;;;;;5056064;28;20118;-43
2021/10/29 06:35:47;;;;;;;11.13;8.18;;;9.60;99.90;;;;;;5055690;28;20075;-42
2021/10/29 06:38:14;;;;;;;11.30;7.82;;;9.60;99.90;;;;;;5062432;28;20032;-43
2021/10/29 06:40:50;;;;;;;10.82;8.32;;;9.60;99.90;;;;;;5058682;28;20056;-44
2021/10/29 06:43:25;;;;;;;13.02;8.40;;;9.60;99.90;;;;;;5060799;28;20033;-44
2021/10/29 07:42:07;;;;;;;10.13;7.57;;;10.00;99.90;;;;;;5067312;28;20043;-44
2021/10/29 07:44:34;;;;;;;9.95;8.00;;;10.00;99.90;;;;;;5057091;28;20033;-43
2021/10/29 07:47:00;;;;;;;12.02;8.02;;;10.10;99.90;;;;;;5057434;28;20025;-43
2021/10/29 07:49:27;;;;;;;9.27;7.40;;;10.10;99.90;;;;;;5056495;28;20077;-43
2021/10/29 07:51:54;;;;;;;11.98;8.70;;;10.10;99.90;;;;;;5065995;28;20029;-44
2021/10/29 07:54:20;;;;;;;11.45;8.23;;;10.20;99.90;;;;;;5066820;28;20154;-42
2021/10/29 07:56:46;;;;;;;10.00;7.15;;;10.30;99.90;;;;;;5064547;28;20036;-42
2021/10/29 07:59:11;;;;;;;8.65;6.32;;;10.30;99.90;;;;;;5059780;28;20021;-43
2021/10/29 08:01:38;;;;;;;8.98;7.15;;;10.40;99.90;;;;;;5048176;28;20841;-43
2021/10/29 08:04:03;;;;;;;11.27;8.65;;;10.40;99.90;;;;;;5059186;28;20457;-44
2021/10/29 08:06:29;;;;;;;10.25;8.23;;;10.50;99.90;;;;;;5045715;28;20056;-45
2021/10/29 08:08:54;;;;;;;8.95;6.82;;;10.60;99.90;;;;;;5056396;28;20028;-44
2021/10/29 08:11:20;;;;;;;8.70;6.63;;;10.60;99.90;;;;;;5051184;28;20167;-44
2021/10/29 08:13:46;;;;;;;10.63;7.63;;;10.70;99.90;;;;;;5053552;28;20521;-43
2021/10/29 08:16:11;;;;;;;8.75;7.57;;;10.70;99.90;;;;;;5053313;28;20683;-43
2021/10/29 08:18:43;;;;;;;10.32;7.43;;;10.80;99.90;;;;;;5050914;28;20028;-43
2021/10/29 08:21:11;;;;;;;9.73;7.35;;;10.90;99.90;;;;;;5054735;28;20025;-43
2021/10/29 08:23:37;;;;;;;8.73;6.60;;;10.90;99.90;;;;;;5050182;28;20016;-43
2021/10/29 08:26:02;;;;;;;9.38;7.35;;;11.00;99.90;;;;;;5052079;28;21690;-43
2021/10/29 08:28:31;;;;;;;9.70;7.50;;;11.00;99.90;;;;;;5047529;28;20063;-44
2021/10/29 08:30:58;;;;;;;9.65;8.02;;;11.10;99.90;;;;;;5058687;28;20025;-43
2021/10/29 08:33:24;;;;;;;11.57;7.65;;;11.10;99.90;;;;;;5048179;28;20531;-43
2021/10/29 08:35:52;;;;;;;12.13;8.48;;;11.20;99.90;;;;;;5057948;28;20028;-43
2021/10/29 08:38:19;;;;;;;14.27;8.30;;;11.30;99.90;;;;;;5056962;28;20044;-43
2021/10/29 08:40:45;;;;;;;10.32;7.97;;;11.40;99.90;;;;;;5053635;28;20032;-44
2021/10/29 08:43:14;;;;;;;9.85;7.53;;;11.50;99.90;;;;;;5066579;28;20040;-43
2021/10/29 08:45:39;;;;;;;9.77;7.70;;;11.50;99.90;;;;;;5053808;28;20043;-43
2021/10/29 08:48:06;;;;;;;10.15;7.50;;;11.60;99.90;;;;;;5066436;28;20020;-43
2021/10/29 08:50:33;;;;;;;11.70;7.72;;;11.60;99.90;;;;;;5055192;28;20064;-43
2021/10/29 08:52:58;;;;;;;9.93;7.47;;;11.70;99.90;;;;;;5060989;28;20358;-43
2021/10/29 08:55:27;;;;;;;10.13;7.50;;;11.70;99.90;;;;;;5054739;28;20068;-44
2021/10/29 08:57:53;;;;;;;9.18;7.88;;;11.80;99.90;;;;;;5050348;28;20032;-43
2021/10/29 09:00:28;;;;;;;9.38;7.45;;;11.90;99.90;;;;;;5054317;28;20016;-44
2021/10/29 09:11:38;;;;;;;11.95;8.30;;;12.30;99.90;;;;;;5057323;28;20028;-44
2021/10/29 09:17:08;;;;;;;9.45;7.32;;;12.40;99.90;;;;;;5057424;28;20105;-44
2021/10/29 09:34:16;;;;;;;9.77;7.07;;;12.70;99.90;;;;;;5061580;28;20055;-43
2021/10/29 09:36:45;;;;;;;10.55;7.10;;;12.80;99.90;;;;;;5057720;28;20469;-43
2021/10/29 09:39:16;;;;;;;9.68;7.80;;;12.80;99.90;;;;;;5049457;28;20056;-44
2021/10/29 09:41:43;;;;;;;9.50;7.47;;;12.90;99.90;;;;;;5050814;28;20098;-44
2021/10/29 09:44:18;;;;;;;10.10;7.45;;;13.00;99.90;;;;;;5051643;28;20044;-43
2021/10/29 09:46:58;;;;;;;10.23;7.20;;;13.10;99.90;;;;;;5051002;28;20081;-44
2021/10/29 09:52:35;;;;;;;12.23;8.18;;;13.10;99.90;;;;;;5046272;28;20051;-43
2021/10/29 09:57:33;;;;;;;9.70;7.82;;;13.30;99.90;;;;;;5054547;28;20021;-44
2021/10/29 10:00:11;;;;;;;11.25;8.55;;;13.30;99.90;;;;;;5048389;28;20055;-43
2021/10/29 10:02:39;;;;;;;9.95;7.70;;;13.40;99.90;;;;;;5054121;28;20077;-44
2021/10/29 10:05:06;;;;;;;9.00;6.43;;;13.40;99.90;;;;;;5049754;28;20192;-43
2021/10/29 10:07:38;;;;;;;10.38;7.13;;;13.50;99.90;;;;;;5051573;28;20074;-43
2021/10/29 10:10:07;;;;;;;11.13;7.72;;;13.50;99.90;;;;;;5050843;28;20502;-44
2021/10/29 10:12:35;;;;;;;9.45;7.57;;;13.50;99.90;;;;;;5050011;28;20671;-44
2021/10/29 10:15:04;;;;;;;9.30;7.43;;;13.60;99.90;;;;;;5052622;28;20812;-43
2021/10/29 10:17:30;;;;;;;8.88;6.20;;;13.60;99.90;;;;;;5049013;28;20029;-43
2021/10/29 10:19:57;;;;;;;8.10;6.43;;;13.60;99.90;;;;;;5054294;28;20021;-43
2021/10/29 10:22:26;;;;;;;6.82;5.78;;;13.60;99.90;;;;;;5046649;28;20496;-43
2021/10/29 10:25:05;;;;;;;7.15;5.97;;;13.70;99.90;;;;;;5057117;28;20048;-43
2021/10/29 10:30:23;;;;;;;11.27;6.70;;;13.70;99.90;;;;;;5046179;28;20033;-43
2021/10/29 10:41:55;;;;;;;6.72;5.97;;;14.00;99.90;;;;;;5065024;28;20070;-43
2021/10/29 10:44:20;;;;;;;7.13;6.18;;;14.10;99.90;;;;;;5059865;28;20052;-44
2021/10/29 10:46:50;;;;;;;8.27;6.15;;;14.20;99.90;;;;;;5067822;28;20016;-44
2021/10/29 10:49:34;;;;;;;7.80;5.70;;;14.30;99.90;;;;;;5059805;28;20064;-44
2021/10/29 10:52:14;;;;;;;8.32;5.85;;;14.30;99.90;;;;;;5068626;28;20119;-43
2021/10/29 10:54:49;;;;;;;7.10;6.32;;;14.40;99.90;;;;;;5055981;28;20131;-43
2021/10/29 10:58:28;;;;;;;7.20;5.55;;;14.50;99.90;;;;;;5069187;28;20748;-43
2021/10/29 11:03:10;;;;;;;6.53;5.75;;;14.50;99.90;;;;;;5068203;28;20773;-44
2021/10/29 11:10:58;;;;;;;7.63;5.80;;;14.70;99.90;;;;;;5056049;28;20063;-44
2021/10/29 11:13:26;;;;;;;10.38;7.05;;;14.70;99.90;;;;;;5068823;28;20127;-43
2021/10/29 11:16:01;;;;;;;7.88;5.78;;;14.70;99.90;;;;;;5055561;28;20036;-44
2021/10/29 11:18:31;;;;;;;7.60;5.70;;;14.80;99.90;;;;;;5060440;28;20025;-43
2021/10/29 11:21:35;;;;;;;5.93;5.03;;;15.00;99.90;;;;;;5060853;28;20023;-42
2021/10/29 11:24:02;;;;;;;6.53;5.53;;;15.00;99.90;;;;;;5017126;28;20045;-43
2021/10/29 11:26:40;;;;;;;9.50;5.40;;;15.10;99.90;;;;;;5059793;28;20020;-43
2021/10/29 11:29:09;;;;;;;6.45;5.18;;;15.10;99.90;;;;;;5048643;28;20523;-43
2021/10/29 11:31:37;;;;;;;9.13;5.63;;;15.20;99.90;;;;;;5054705;28;20063;-43
2021/10/29 11:34:06;;;;;;;5.43;4.68;;;15.20;99.90;;;;;;5068322;28;20028;-44
2021/10/29 11:36:37;;;;;;;5.80;4.93;;;15.20;99.90;;;;;;5055095;28;20086;-44
2021/10/29 11:39:11;;;;;;;7.03;5.38;;;15.20;99.90;;;;;;5068173;28;20032;-43
2021/10/29 11:41:39;;;;;;;6.05;4.47;;;15.20;99.90;;;;;;5055269;28;20029;-43
2021/10/29 11:44:11;;;;;;;9.63;5.65;;;15.20;99.90;;;;;;5068062;28;20044;-43
2021/10/29 11:46:37;;;;;;;5.70;5.10;;;15.10;99.90;;;;;;5055415;28;20525;-43
2021/10/29 11:49:06;;;;;;;6.57;5.43;;;15.20;99.90;;;;;;5068431;28;20032;-43
2021/10/29 11:51:34;;;;;;;6.43;5.00;;;15.20;99.90;;;;;;5055896;28;20029;-44
2021/10/29 11:54:14;;;;;;;8.93;6.20;;;15.20;99.90;;;;;;5056130;28;20029;-42
2021/10/29 11:59:53;;;;;;;6.80;5.20;;;15.30;99.90;;;;;;5039692;28;20165;-44
2021/10/29 12:07:39;;;;;;;6.47;4.80;;;15.50;99.90;;;;;;5060598;28;20036;-44
2021/10/29 12:10:05;;;;;;;7.95;5.78;;;15.60;99.90;;;;;;5048204;28;20033;-43
2021/10/29 12:12:32;;;;;;;6.00;4.85;;;15.60;99.90;;;;;;5059139;28;20028;-44
2021/10/29 12:15:09;;;;;;;6.47;5.35;;;15.60;99.90;;;;;;5048438;28;20124;-43
2021/10/29 12:18:03;;;;;;;5.82;4.90;;;15.70;99.90;;;;;;5059451;28;20060;-43
2021/10/29 12:20:32;;;;;;;7.45;5.53;;;15.70;99.90;;;;;;5043529;28;20037;-44
2021/10/29 12:23:15;;;;;;;7.50;5.68;;;15.70;99.90;;;;;;5059520;28;20100;-43
2021/10/29 12:25:46;;;;;;;9.07;5.47;;;15.70;99.90;;;;;;5047231;28;20041;-43
2021/10/29 12:28:19;;;;;;;7.13;5.47;;;15.80;99.90;;;;;;5059510;28;20032;-44
2021/10/29 12:30:54;;;;;;;6.90;5.28;;;15.70;99.90;;;;;;5047028;28;20037;-43
2021/10/29 12:33:40;;;;;;;7.57;6.03;;;15.80;99.90;;;;;;5059120;28;20479;-44
2021/10/29 12:53:14;;;;;;;9.73;7.05;;;15.70;99.90;;;;;;5062800;28;20031;-43
2021/10/29 12:58:59;;;;;;;7.35;5.65;;;15.70;99.90;;;;;;5060768;28;20503;-43
2021/10/29 13:01:41;;;;;;;7.60;5.65;;;15.70;99.90;;;;;;5065826;28;20024;-44
2021/10/29 13:04:15;;;;;;;10.45;6.32;;;15.70;99.90;;;;;;5053609;28;20020;-44
2021/10/29 13:06:46;;;;;;;8.15;6.50;;;15.70;99.90;;;;;;5026720;28;20026;-44
2021/10/29 13:09:15;;;;;;;7.80;6.43;;;15.70;99.90;;;;;;5052748;28;20020;-44
2021/10/29 13:11:46;;;;;;;6.55;5.10;;;15.70;99.90;;;;;;5047361;28;20175;-44
2021/10/29 13:14:14;;;;;;;9.63;6.30;;;15.60;99.90;;;;;;5055384;28;20481;-43
2021/10/29 13:16:39;;;;;;;7.43;6.65;;;15.70;99.90;;;;;;5047831;28;20033;-44
2021/10/29 13:22:26;;;;;;;8.77;6.95;;;15.70;99.90;;;;;;5051096;28;20120;-43
2021/10/29 13:24:41;;;;;;;7.75;5.97;;;15.70;99.90;;;;;;5054706;28;20040;-45
2021/10/29 13:50:09;;;;;;;5.10;4.22;;;15.70;99.90;;;;;;5033516;28;20025;-44
2021/10/29 13:54:50;;;;;;;5.97;4.70;;;15.80;99.90;;;;;;5053497;28;20029;-44
2021/10/29 14:32:56;;;;;;;6.30;4.45;;;16.00;99.90;;;;;;5059695;28;20072;-43
2021/10/29 14:35:00;;;;;;;6.68;4.50;;;16.00;99.90;;;;;;5046041;28;20033;-43
2021/10/29 14:37:34;;;;;;;5.07;4.38;;;16.00;99.90;;;;;;5061949;28;20035;-43
2021/10/29 14:45:08;;;;;;;6.43;5.13;;;16.00;99.90;;;;;;5049430;28;20041;-43
2021/10/29 15:04:35;;;;;;;6.90;5.22;;;16.10;99.90;;;;;;5056595;28;20021;-43
2021/10/29 15:25:52;;;;;;;5.32;3.75;;;15.60;99.90;;;;;;5061789;28;20400;-42
2021/10/29 15:31:02;;;;;;;5.20;3.83;;;15.60;99.90;;;;;;5063806;28;20040;-43
2021/10/29 15:46:40;;;;;;;5.03;4.10;;;15.60;99.90;;;;;;5064708;28;20033;-44
2021/10/29 15:51:40;;;;;;;5.72;3.70;;;15.70;99.90;;;;;;5063071;28;20029;-42
2021/10/29 15:54:11;;;;;;;4.93;3.83;;;15.60;99.90;;;;;;5062392;28;20087;-46
2021/10/29 15:56:48;;;;;;;6.78;3.78;;;15.70;99.90;;;;;;5062774;28;20068;-44
2021/10/29 16:01:56;;;;;;;4.93;4.00;;;15.70;99.90;;;;;;5062706;28;20119;-42
2021/10/29 16:18:05;;;;;;;3.17;2.88;;;16.10;99.90;;;;;;5028249;28;20036;-44
2021/10/29 16:20:31;;;;;;;4.38;3.17;;;16.10;99.90;;;;;;5051968;28;20033;-42
2021/10/29 16:23:01;;;;;;;3.28;2.90;;;16.20;99.90;;;;;;5049838;28;20468;-44
2021/10/29 16:25:32;;;;;;;3.22;2.35;;;16.30;99.90;;;;;;5055337;28;20032;-41
2021/10/29 16:28:03;;;;;;;3.37;2.40;;;16.30;99.90;;;;;;5050930;28;20024;-44
2021/10/29 16:30:31;;;;;;;3.10;2.20;;;16.40;99.90;;;;;;5054945;28;20282;-42
2021/10/29 16:35:24;;;;;;;4.35;3.00;;;16.40;99.90;;;;;;5052620;28;20538;-43
2021/10/29 16:37:50;;;;;;;3.63;2.85;;;16.30;99.90;;;;;;5054873;28;20021;-42
2021/10/29 16:40:16;;;;;;;5.15;3.00;;;16.10;99.90;;;;;;5049587;28;20023;-43
2021/10/29 16:42:43;;;;;;;7.93;3.65;;;15.90;99.90;;;;;;5057217;28;20021;-42
2021/10/29 16:45:11;;;;;;;3.92;2.67;;;15.70;99.90;;;;;;5049021;28;20434;-43
2021/10/29 16:47:36;;;;;;;4.65;2.67;;;15.50;99.90;;;;;;5047729;28;20111;-42
2021/10/29 16:50:06;;;;;;;4.45;2.90;;;15.40;99.90;;;;;;5066091;28;20115;-43
2021/10/29 16:52:32;;;;;;;4.07;2.90;;;15.30;99.90;;;;;;5055844;28;20029;-42
2021/10/29 16:54:57;;;;;;;2.95;2.63;;;15.20;99.90;;;;;;5051261;28;20083;-45
2021/10/29 16:57:23;;;;;;;5.18;3.10;;;15.10;99.90;;;;;;5059412;28;20048;-43
2021/10/29 16:59:49;;;;;;;4.95;2.97;;;15.00;99.90;;;;;;5047438;28;20017;-43
2021/10/29 17:02:15;;;;;;;3.92;2.92;;;14.90;99.90;;;;;;5058797;28;20369;-42
2021/10/29 17:04:41;;;;;;;3.58;2.83;;;14.90;99.90;;;;;;5046844;28;20090;-43
2021/10/29 17:07:07;;;;;;;3.33;2.67;;;14.90;99.90;;;;;;5057651;28;20020;-43
2021/10/29 17:09:33;;;;;;;3.78;2.88;;;14.80;99.90;;;;;;5048034;28;20040;-44
2021/10/29 17:11:59;;;;;;;4.80;3.67;;;14.80;99.90;;;;;;5055232;28;20030;-43
2021/10/29 17:14:26;;;;;;;5.68;3.40;;;14.80;99.90;;;;;;5050609;28;20025;-43
2021/10/29 17:16:52;;;;;;;6.38;3.55;;;14.80;99.90;;;;;;5052083;28;20029;-43
2021/10/29 17:19:18;;;;;;;4.05;3.42;;;14.80;99.90;;;;;;5053864;28;20021;-43
2021/10/29 17:21:43;;;;;;;5.80;3.95;;;14.80;99.90;;;;;;5049115;28;20025;-44
2021/10/29 17:24:09;;;;;;;3.30;3.00;;;14.80;99.90;;;;;;5055973;28;20025;-44
2021/10/29 17:26:35;;;;;;;3.55;2.72;;;14.80;99.90;;;;;;5047720;28;20025;-44
2021/10/29 17:29:02;;;;;;;4.65;2.97;;;14.80;99.90;;;;;;5057152;28;20025;-43
2021/10/29 17:31:28;;;;;;;3.45;2.92;;;14.80;99.90;;;;;;5047502;28;20409;-42
2021/10/29 17:33:54;;;;;;;5.68;4.57;;;14.70;99.90;;;;;;5057770;28;20071;-41
2021/10/29 17:36:20;;;;;;;5.15;3.90;;;14.70;99.90;;;;;;5046361;28;20033;-43